createdAt,value
2019-03-19T00:00:45.865Z,102601.14
2019-03-19T00:03:15.387Z,102596.29
2019-03-19T00:05:44.779Z,102600.01
2019-03-19T00:08:14.219Z,102602.31
2019-03-19T00:10:43.633Z,102601.70
2019-03-19T00:13:13.074Z,102601.45
2019-03-19T00:15:42.478Z,102602.06
2019-03-19T00:18:11.882Z,102601.78
2019-03-19T00:20:41.309Z,102605.58
2019-03-19T00:23:11.005Z,102603.16
2019-03-19T00:25:40.820Z,102607.44
2019-03-19T00:28:10.243Z,102608.88
2019-03-19T00:30:39.655Z,102613.05
2019-03-19T00:33:09.085Z,102615.22
2019-03-19T00:35:38.493Z,102610.84
2019-03-19T00:38:07.921Z,102621.77
2019-03-19T00:40:37.398Z,102619.33
2019-03-19T00:43:06.960Z,102621.06
2019-03-19T00:45:36.372Z,102623.80
2019-03-19T00:48:05.855Z,102620.59
2019-03-19T00:50:35.280Z,102619.94
2019-03-19T00:53:05.138Z,102618.67
2019-03-19T00:55:40.785Z,102615.22
2019-03-19T00:58:05.830Z,102622.83
2019-03-19T01:00:35.315Z,102620.47
2019-03-19T01:03:04.811Z,102622.14
2019-03-19T01:05:34.205Z,102614.00
2019-03-19T01:08:03.708Z,102607.79
2019-03-19T01:10:33.115Z,102610.00
2019-03-19T01:13:02.690Z,102611.66
2019-03-19T01:15:32.188Z,102607.23
2019-03-19T01:18:01.665Z,102608.53
2019-03-19T01:20:31.118Z,102607.62
2019-03-19T01:23:00.895Z,102612.37
2019-03-19T01:25:30.315Z,102610.00
2019-03-19T01:27:59.729Z,102618.53
2019-03-19T01:30:29.123Z,102621.56
2019-03-19T01:32:58.536Z,102620.00
2019-03-19T01:35:27.970Z,102619.75
2019-03-19T01:37:57.400Z,102624.29
2019-03-19T01:40:26.808Z,102624.21
2019-03-19T01:42:56.246Z,102620.42
2019-03-19T01:45:25.686Z,102623.35
2019-03-19T01:47:55.084Z,102624.77
2019-03-19T01:50:24.521Z,102621.97
2019-03-19T01:52:53.922Z,102614.75
2019-03-19T01:55:25.498Z,102617.95
2019-03-19T01:57:54.496Z,102615.52
2019-03-19T02:00:23.897Z,102620.13
2019-03-19T02:02:53.332Z,102620.08
2019-03-19T02:05:22.737Z,102622.36
2019-03-19T02:07:52.157Z,102627.24
2019-03-19T02:10:21.585Z,102627.09
2019-03-19T02:12:50.996Z,102631.48
2019-03-19T02:15:20.562Z,102628.86
2019-03-19T02:17:49.986Z,102634.23
2019-03-19T02:20:20.127Z,102633.69
2019-03-19T02:22:49.560Z,102631.42
2019-03-19T02:25:18.983Z,102642.08
2019-03-19T02:27:48.424Z,102648.77
2019-03-19T02:30:18.365Z,102649.67
2019-03-19T02:33:07.513Z,102638.50
2019-03-19T02:35:37.331Z,102645.30
2019-03-19T02:38:06.744Z,102642.83
2019-03-19T02:40:36.190Z,102641.52
2019-03-19T02:43:06.027Z,102636.92
2019-03-19T02:45:35.469Z,102642.46
2019-03-19T02:48:05.021Z,102642.74
2019-03-19T02:50:34.418Z,102661.67
2019-03-19T02:53:03.904Z,102658.67
2019-03-19T02:55:33.310Z,102658.07
2019-03-19T02:58:02.758Z,102662.73
2019-03-19T03:00:32.182Z,102663.89
2019-03-19T03:03:01.650Z,102661.36
2019-03-19T03:05:31.146Z,102655.52
2019-03-19T03:08:00.565Z,102656.47
2019-03-19T03:10:30.000Z,102656.32
2019-03-19T03:12:59.400Z,102658.86
2019-03-19T03:15:28.842Z,102667.37
2019-03-19T03:17:58.271Z,102668.21
2019-03-19T03:20:27.753Z,102669.61
2019-03-19T03:22:57.175Z,102671.86
2019-03-19T03:25:26.745Z,102668.53
2019-03-19T03:27:56.544Z,102672.30
2019-03-19T03:30:26.021Z,102674.43
2019-03-19T03:32:55.748Z,102675.20
2019-03-19T03:35:25.205Z,102683.62
2019-03-19T03:37:54.632Z,102687.63
2019-03-19T03:40:24.165Z,102684.34
2019-03-19T03:42:53.701Z,102675.44
2019-03-19T03:45:23.162Z,102678.20
2019-03-19T03:47:52.674Z,102691.04
2019-03-19T03:50:22.082Z,102685.67
2019-03-19T03:52:51.507Z,102691.16
2019-03-19T03:55:21.473Z,102682.86
2019-03-19T03:57:51.289Z,102689.39
2019-03-19T04:00:23.385Z,102695.37
2019-03-19T04:02:52.865Z,102699.49
2019-03-19T04:05:22.426Z,102697.84
2019-03-19T04:07:51.851Z,102686.78
2019-03-19T04:10:21.356Z,102689.75
2019-03-19T04:12:50.775Z,102694.64
2019-03-19T04:15:20.376Z,102686.55
2019-03-19T04:17:50.158Z,102694.69
2019-03-19T04:20:20.089Z,102705.98
2019-03-19T04:22:49.576Z,102707.43
2019-03-19T04:25:19.065Z,102709.12
2019-03-19T04:27:48.481Z,102706.10
2019-03-19T04:30:20.694Z,102701.30
2019-03-19T04:32:50.186Z,102704.09
2019-03-19T04:35:19.602Z,102701.65
2019-03-19T04:37:49.015Z,102698.92
2019-03-19T04:40:18.506Z,102705.09
2019-03-19T04:42:47.946Z,102715.16
2019-03-19T04:45:18.004Z,102712.64
2019-03-19T04:47:47.428Z,102713.35
2019-03-19T04:50:17.704Z,102713.64
2019-03-19T04:52:47.204Z,102717.20
2019-03-19T04:55:17.429Z,102727.14
2019-03-19T04:57:46.849Z,102730.22
2019-03-19T05:00:18.791Z,102716.64
2019-03-19T05:02:48.316Z,102722.17
2019-03-19T05:05:17.821Z,102728.75
2019-03-19T05:07:47.251Z,102729.19
2019-03-19T05:10:18.078Z,102730.55
2019-03-19T05:12:47.897Z,102727.22
2019-03-19T05:15:17.314Z,102733.44
2019-03-19T05:17:46.826Z,102735.42
2019-03-19T05:20:20.009Z,102733.83
2019-03-19T05:22:49.436Z,102737.61
2019-03-19T05:25:19.067Z,102738.50
2019-03-19T05:27:48.463Z,102739.38
2019-03-19T05:30:19.703Z,102735.35
2019-03-19T05:32:49.129Z,102728.09
2019-03-19T05:35:18.714Z,102724.88
2019-03-19T05:37:48.130Z,102732.30
2019-03-19T05:40:18.285Z,102732.74
2019-03-19T05:42:47.741Z,102735.88
2019-03-19T05:45:17.596Z,102735.02
2019-03-19T05:47:47.112Z,102739.36
2019-03-19T05:50:24.818Z,102727.05
2019-03-19T05:52:54.254Z,102737.37
2019-03-19T05:55:23.666Z,102733.83
2019-03-19T05:57:53.137Z,102737.08
2019-03-19T06:00:27.018Z,102741.09
2019-03-19T06:02:56.635Z,102745.18
2019-03-19T06:05:26.088Z,102733.86
2019-03-19T06:07:55.502Z,102750.30
2019-03-19T06:10:26.012Z,102759.44
2019-03-19T06:12:55.732Z,102765.49
2019-03-19T06:15:25.155Z,102767.06
2019-03-19T06:17:54.564Z,102765.31
2019-03-19T06:20:24.048Z,102771.53
2019-03-19T06:22:53.531Z,102765.63
2019-03-19T06:25:23.061Z,102762.05
2019-03-19T06:28:00.275Z,102766.06
2019-03-19T06:30:25.299Z,102766.04
2019-03-19T06:32:54.721Z,102767.27
2019-03-19T06:35:24.148Z,102764.69
2019-03-19T06:37:53.568Z,102770.61
2019-03-19T06:40:23.517Z,102777.25
2019-03-19T06:42:53.036Z,102779.99
2019-03-19T06:45:23.452Z,102781.38
2019-03-19T06:47:53.125Z,102785.73
2019-03-19T06:50:23.060Z,102785.36
2019-03-19T06:52:52.560Z,102789.55
2019-03-19T06:55:22.302Z,102797.53
2019-03-19T06:57:51.741Z,102792.69
2019-03-19T07:00:22.604Z,102792.18
2019-03-19T07:02:52.091Z,102788.19
2019-03-19T07:05:22.575Z,102799.27
2019-03-19T07:07:52.070Z,102793.83
2019-03-19T07:10:22.322Z,102794.38
2019-03-19T07:12:51.832Z,102792.13
2019-03-19T07:15:24.660Z,102789.94
2019-03-19T07:17:54.504Z,102798.50
2019-03-19T07:20:26.821Z,102803.95
2019-03-19T07:22:56.280Z,102803.05
2019-03-19T07:25:25.798Z,102808.34
2019-03-19T07:27:55.204Z,102809.27
2019-03-19T07:30:27.774Z,102810.97
2019-03-19T07:32:57.227Z,102803.06
2019-03-19T07:35:26.626Z,102802.50
2019-03-19T07:37:56.051Z,102793.30
2019-03-19T07:40:25.603Z,102792.13
2019-03-19T07:42:55.044Z,102792.87
2019-03-19T07:45:26.045Z,102785.36
2019-03-19T07:47:55.504Z,102798.61
2019-03-19T07:50:25.418Z,102792.25
2019-03-19T07:52:54.855Z,102806.27
2019-03-19T07:55:24.402Z,102801.75
2019-03-19T07:57:53.835Z,102805.32
2019-03-19T08:00:23.907Z,102807.02
2019-03-19T08:02:53.429Z,102802.84
2019-03-19T08:05:32.561Z,102811.28
2019-03-19T08:07:54.016Z,102820.38
2019-03-19T08:10:23.513Z,102821.85
2019-03-19T08:12:52.946Z,102831.06
2019-03-19T08:15:22.939Z,102831.85
2019-03-19T08:17:52.370Z,102842.55
2019-03-19T08:20:21.800Z,102836.47
2019-03-19T08:22:51.241Z,102842.52
2019-03-19T08:25:20.681Z,102844.88
2019-03-19T08:27:50.473Z,102847.92
2019-03-19T08:30:25.028Z,102850.37
2019-03-19T08:32:55.004Z,102849.92
2019-03-19T08:35:24.455Z,102847.97
2019-03-19T08:37:53.915Z,102844.08
2019-03-19T08:40:23.452Z,102847.97
2019-03-19T08:42:52.887Z,102852.27
2019-03-19T08:45:25.962Z,102862.98
2019-03-19T08:47:55.362Z,102865.92
2019-03-19T08:50:25.254Z,102863.17
2019-03-19T08:52:55.554Z,102864.71
2019-03-19T08:55:25.329Z,102865.67
2019-03-19T08:57:54.774Z,102868.97
2019-03-19T09:00:28.563Z,102868.13
2019-03-19T09:02:58.008Z,102868.67
2019-03-19T09:05:27.424Z,102871.68
2019-03-19T09:07:57.227Z,102868.80
2019-03-19T09:10:45.998Z,102869.70
2019-03-19T09:13:15.435Z,102871.15
2019-03-19T09:15:44.868Z,102867.23
2019-03-19T09:18:16.060Z,102864.64
2019-03-19T09:20:45.445Z,102875.48
2019-03-19T09:23:14.890Z,102870.10
2019-03-19T09:25:44.302Z,102877.50
2019-03-19T09:28:13.807Z,102881.00
2019-03-19T09:30:43.229Z,102879.46
2019-03-19T09:33:12.735Z,102886.83
2019-03-19T09:35:42.238Z,102887.30
2019-03-19T09:38:11.674Z,102893.53
2019-03-19T09:40:41.108Z,102892.18
2019-03-19T09:43:10.535Z,102901.24
2019-03-19T09:45:40.035Z,102896.01
2019-03-19T09:48:09.454Z,102901.69
2019-03-19T09:50:38.888Z,102904.34
2019-03-19T09:53:08.383Z,102899.17
2019-03-19T09:55:37.839Z,102901.02
2019-03-19T09:58:07.267Z,102899.14
2019-03-19T10:00:37.047Z,102906.06
2019-03-19T10:03:06.569Z,102906.42
2019-03-19T10:05:35.988Z,102910.06
2019-03-19T10:08:05.481Z,102911.27
2019-03-19T10:10:34.996Z,102909.43
2019-03-19T10:13:04.590Z,102916.37
2019-03-19T10:15:34.048Z,102917.27
2019-03-19T10:18:03.486Z,102922.48
2019-03-19T10:20:32.913Z,102926.39
2019-03-19T10:23:02.352Z,102923.35
2019-03-19T10:25:31.761Z,102922.42
2019-03-19T10:28:01.202Z,102922.72
2019-03-19T10:30:30.683Z,102923.91
2019-03-19T10:33:00.227Z,102918.12
2019-03-19T10:35:29.639Z,102924.00
2019-03-19T10:37:59.077Z,102921.72
2019-03-19T10:40:28.524Z,102924.66
2019-03-19T10:42:57.954Z,102930.00
2019-03-19T10:45:27.392Z,102926.10
2019-03-19T10:47:56.884Z,102926.03
2019-03-19T10:50:29.837Z,102922.98
2019-03-19T10:52:59.274Z,102917.07
2019-03-19T10:55:28.772Z,102917.58
2019-03-19T10:57:58.226Z,102921.46
2019-03-19T11:00:28.100Z,102917.66
2019-03-19T11:02:57.602Z,102920.39
2019-03-19T11:05:27.190Z,102925.50
2019-03-19T11:07:56.671Z,102916.52
2019-03-19T11:10:26.419Z,102921.80
2019-03-19T11:12:55.830Z,102919.11
2019-03-19T11:15:31.468Z,102927.50
2019-03-19T11:18:00.266Z,102924.22
2019-03-19T11:20:29.692Z,102915.97
2019-03-19T11:22:59.261Z,102917.63
2019-03-19T11:25:30.476Z,102922.48
2019-03-19T11:28:00.345Z,102917.16
2019-03-19T11:30:31.178Z,102915.53
2019-03-19T11:33:00.667Z,102907.85
2019-03-19T11:35:30.199Z,102900.68
2019-03-19T11:37:59.706Z,102908.41
2019-03-19T11:40:29.194Z,102913.58
2019-03-19T11:42:58.674Z,102905.88
2019-03-19T11:45:28.608Z,102912.30
2019-03-19T11:47:58.028Z,102903.61
2019-03-19T11:50:33.208Z,102896.64
2019-03-19T11:53:02.295Z,102908.19
2019-03-19T11:55:31.722Z,102905.87
2019-03-19T11:58:01.251Z,102904.94
2019-03-19T12:00:39.531Z,102902.50
2019-03-19T12:03:15.434Z,102899.62
2019-03-19T12:05:40.792Z,102906.53
2019-03-19T12:08:10.197Z,102899.97
2019-03-19T12:10:39.792Z,102899.62
2019-03-19T12:13:09.608Z,102902.62
2019-03-19T12:15:39.103Z,102910.36
2019-03-19T12:18:08.699Z,102913.75
2019-03-19T12:20:38.245Z,102918.44
2019-03-19T12:23:07.753Z,102917.32
2019-03-19T12:25:37.241Z,102919.52
2019-03-19T12:28:07.009Z,102910.91
2019-03-19T12:30:37.066Z,102914.81
2019-03-19T12:33:06.635Z,102911.44
2019-03-19T12:35:36.076Z,102912.89
2019-03-19T12:38:05.839Z,102913.00
2019-03-19T12:40:37.250Z,102917.28
2019-03-19T12:43:07.203Z,102906.91
2019-03-19T12:45:36.698Z,102909.83
2019-03-19T12:48:06.575Z,102908.27
2019-03-19T12:50:36.035Z,102902.87
2019-03-19T12:53:05.621Z,102906.21
2019-03-19T12:55:35.088Z,102902.66
2019-03-19T12:58:05.121Z,102902.95
2019-03-19T13:00:35.145Z,102897.50
2019-03-19T13:03:05.133Z,102892.80
2019-03-19T13:05:34.602Z,102897.02
2019-03-19T13:08:04.355Z,102896.18
2019-03-19T13:10:33.831Z,102894.83
2019-03-19T13:13:03.266Z,102897.59
2019-03-19T13:15:32.744Z,102903.11
2019-03-19T13:18:02.182Z,102903.64
2019-03-19T13:20:31.664Z,102902.66
2019-03-19T13:23:01.464Z,102902.58
2019-03-19T13:25:31.172Z,102904.86
2019-03-19T13:28:00.587Z,102906.70
2019-03-19T13:30:44.063Z,102900.41
2019-03-19T13:33:04.779Z,102902.00
2019-03-19T13:35:34.238Z,102902.22
2019-03-19T13:38:03.719Z,102902.59
2019-03-19T13:40:33.214Z,102901.59
2019-03-19T13:43:02.824Z,102899.81
2019-03-19T13:45:32.307Z,102896.95
2019-03-19T13:48:01.753Z,102897.69
2019-03-19T13:50:31.178Z,102896.23
2019-03-19T13:53:00.605Z,102894.71
2019-03-19T13:55:30.037Z,102900.03
2019-03-19T13:57:59.473Z,102897.19
2019-03-19T14:00:29.329Z,102894.41
2019-03-19T14:02:59.308Z,102894.31
2019-03-19T14:05:29.253Z,102893.93
2019-03-19T14:07:58.751Z,102888.61
2019-03-19T14:10:28.183Z,102888.24
2019-03-19T14:12:57.616Z,102883.03
2019-03-19T14:15:28.168Z,102885.81
2019-03-19T14:17:57.613Z,102883.75
2019-03-19T14:20:27.114Z,102887.14
2019-03-19T14:22:56.609Z,102883.53
2019-03-19T14:25:26.041Z,102884.89
2019-03-19T14:27:58.297Z,102883.34
2019-03-19T14:30:27.849Z,102883.77
2019-03-19T14:32:57.247Z,102887.16
2019-03-19T14:35:36.858Z,102884.09
2019-03-19T14:37:57.931Z,102878.32
2019-03-19T14:40:28.172Z,102882.36
2019-03-19T14:43:01.023Z,102886.06
2019-03-19T14:45:28.732Z,102881.50
2019-03-19T14:47:58.217Z,102880.66
2019-03-19T14:50:28.010Z,102884.54
2019-03-19T14:52:57.497Z,102888.31
2019-03-19T14:55:26.949Z,102880.22
2019-03-19T14:57:56.368Z,102888.06
2019-03-19T15:00:25.950Z,102884.23
2019-03-19T15:02:55.393Z,102883.08
2019-03-19T15:05:24.883Z,102886.91
2019-03-19T15:07:54.331Z,102881.25
2019-03-19T15:10:24.673Z,102892.52
2019-03-19T15:12:54.207Z,102893.19
2019-03-19T15:15:24.094Z,102892.20
2019-03-19T15:17:53.524Z,102889.12
2019-03-19T15:20:28.134Z,102891.78
2019-03-19T15:22:57.548Z,102892.03
2019-03-19T15:25:27.008Z,102904.61
2019-03-19T15:27:56.416Z,102902.07
2019-03-19T15:30:25.840Z,102895.56
2019-03-19T15:32:55.275Z,102900.24
2019-03-19T15:35:25.020Z,102898.08
2019-03-19T15:37:54.771Z,102893.63
2019-03-19T15:40:24.265Z,102892.08
2019-03-19T15:42:53.710Z,102892.29
2019-03-19T15:45:27.120Z,102899.16
2019-03-19T15:47:56.553Z,102894.73
2019-03-19T15:50:26.035Z,102895.63
2019-03-19T15:52:55.447Z,102898.09
2019-03-19T15:55:25.039Z,102895.95
2019-03-19T15:57:54.527Z,102892.41
2019-03-19T16:00:24.091Z,102897.47
2019-03-19T16:02:53.530Z,102898.30
2019-03-19T16:05:22.958Z,102896.50
2019-03-19T16:07:52.395Z,102901.13
2019-03-19T16:10:21.893Z,102898.39
2019-03-19T16:12:51.326Z,102907.05
2019-03-19T16:15:24.007Z,102900.79
2019-03-19T16:17:53.435Z,102903.34
2019-03-19T16:20:23.504Z,102899.55
2019-03-19T16:22:54.691Z,102907.77
2019-03-19T16:25:24.127Z,102908.13
2019-03-19T16:27:53.556Z,102911.19
2019-03-19T16:30:23.122Z,102911.55
2019-03-19T16:32:52.573Z,102917.16
2019-03-19T16:35:22.266Z,102916.86
2019-03-19T16:37:51.697Z,102918.25
2019-03-19T16:40:22.439Z,102924.00
2019-03-19T16:42:52.046Z,102923.33
2019-03-19T16:45:21.846Z,102921.98
2019-03-19T16:47:51.260Z,102928.69
2019-03-19T16:50:22.335Z,102941.78
2019-03-19T16:52:51.873Z,102938.42
2019-03-19T16:55:22.444Z,102939.48
2019-03-19T16:57:51.877Z,102939.75
2019-03-19T17:00:31.378Z,102944.23
2019-03-19T17:03:00.818Z,102945.96
2019-03-19T17:05:30.523Z,102945.58
2019-03-19T17:08:00.057Z,102948.58
2019-03-19T17:10:31.802Z,102952.52
2019-03-19T17:13:01.220Z,102952.41
2019-03-19T17:15:30.724Z,102946.42
2019-03-19T17:18:00.172Z,102948.97
2019-03-19T17:20:29.637Z,102952.28
2019-03-19T17:22:59.139Z,102951.77
2019-03-19T17:25:28.978Z,102949.20
2019-03-19T17:27:58.790Z,102947.60
2019-03-19T17:30:32.901Z,102955.79
2019-03-19T17:33:02.340Z,102953.46
2019-03-19T17:35:32.212Z,102953.36
2019-03-19T17:38:01.624Z,102955.72
2019-03-19T17:40:40.901Z,102962.90
2019-03-19T17:43:02.564Z,102963.45
2019-03-19T17:45:32.085Z,102967.23
2019-03-19T17:48:01.501Z,102968.25
2019-03-19T17:50:40.350Z,102974.58
2019-03-19T17:53:09.757Z,102977.15
2019-03-19T17:55:39.171Z,102984.06
2019-03-19T17:58:08.689Z,102990.87
2019-03-19T18:00:42.692Z,102994.27
2019-03-19T18:03:12.492Z,102989.69
2019-03-19T18:05:41.986Z,102992.19
2019-03-19T18:08:11.489Z,102997.25
2019-03-19T18:10:41.312Z,102997.62
2019-03-19T18:13:10.723Z,102994.80
2019-03-19T18:15:40.517Z,102993.73
2019-03-19T18:18:10.075Z,102994.62
2019-03-19T18:20:39.507Z,102992.55
2019-03-19T18:23:08.927Z,102991.70
2019-03-19T18:25:38.661Z,102994.01
2019-03-19T18:28:08.192Z,102994.56
2019-03-19T18:30:37.792Z,102995.59
2019-03-19T18:33:07.293Z,102998.30
2019-03-19T18:35:36.802Z,102993.03
2019-03-19T18:38:06.334Z,102998.45
2019-03-19T18:40:35.773Z,102995.20
2019-03-19T18:43:05.333Z,103004.98
2019-03-19T18:45:34.844Z,103005.69
2019-03-19T18:48:04.415Z,103007.97
2019-03-19T18:50:33.878Z,103008.80
2019-03-19T18:53:03.314Z,103016.50
2019-03-19T18:55:32.737Z,103027.05
2019-03-19T18:58:02.195Z,103028.47
2019-03-19T19:00:31.661Z,103032.86
2019-03-19T19:03:01.087Z,103036.39
2019-03-19T19:05:30.529Z,103036.31
2019-03-19T19:07:59.936Z,103034.67
2019-03-19T19:10:29.372Z,103038.83
2019-03-19T19:12:58.792Z,103037.94
2019-03-19T19:15:28.231Z,103044.53
2019-03-19T19:17:57.635Z,103042.55
2019-03-19T19:20:27.071Z,103047.29
2019-03-19T19:22:56.573Z,103049.51
2019-03-19T19:25:27.142Z,103051.05
2019-03-19T19:27:56.619Z,103059.23
2019-03-19T19:30:33.073Z,103062.06
2019-03-19T19:33:02.854Z,103064.20
2019-03-19T19:35:32.696Z,103062.93
2019-03-19T19:38:03.450Z,103067.72
2019-03-19T19:40:33.127Z,103073.52
2019-03-19T19:43:02.599Z,103078.16
2019-03-19T19:45:32.030Z,103077.07
2019-03-19T19:48:01.426Z,103080.57
2019-03-19T19:50:30.846Z,103082.97
2019-03-19T19:53:00.289Z,103089.13
2019-03-19T19:55:29.717Z,103092.91
2019-03-19T19:57:59.211Z,103094.75
2019-03-19T20:00:28.657Z,103098.17
2019-03-19T20:02:58.085Z,103104.42
2019-03-19T20:05:27.523Z,103106.97
2019-03-19T20:07:56.926Z,103108.31
2019-03-19T20:10:27.903Z,103107.40
2019-03-19T20:12:57.398Z,103108.61
2019-03-19T20:15:26.893Z,103109.75
2019-03-19T20:17:56.347Z,103117.89
2019-03-19T20:20:31.296Z,103112.25
2019-03-19T20:23:00.833Z,103117.40
2019-03-19T20:25:30.320Z,103116.52
2019-03-19T20:27:59.735Z,103115.67
2019-03-19T20:30:29.782Z,103126.69
2019-03-19T20:32:59.230Z,103132.77
2019-03-19T20:35:28.769Z,103123.59
2019-03-19T20:37:58.473Z,103122.39
2019-03-19T20:40:28.334Z,103120.25
2019-03-19T20:42:57.782Z,103118.24
2019-03-19T20:45:29.389Z,103117.51
2019-03-19T20:47:58.837Z,103122.69
2019-03-19T20:50:40.145Z,103113.95
2019-03-19T20:53:09.656Z,103111.55
2019-03-19T20:55:39.139Z,103118.59
2019-03-19T20:58:08.544Z,103120.06
2019-03-19T21:00:37.999Z,103125.19
2019-03-19T21:03:07.481Z,103116.61
2019-03-19T21:05:36.931Z,103118.41
2019-03-19T21:08:06.522Z,103112.92
2019-03-19T21:10:35.955Z,103118.13
2019-03-19T21:13:08.867Z,103120.73
2019-03-19T21:15:38.365Z,103121.77
2019-03-19T21:18:07.881Z,103121.47
2019-03-19T21:20:37.377Z,103122.59
2019-03-19T21:23:06.814Z,103123.91
2019-03-19T21:25:36.322Z,103123.10
2019-03-19T21:28:13.547Z,103128.53
2019-03-19T21:30:37.027Z,103132.05
2019-03-19T21:33:06.443Z,103134.59
2019-03-19T21:35:35.891Z,103135.19
2019-03-19T21:38:05.365Z,103140.38
2019-03-19T21:40:34.851Z,103150.11
2019-03-19T21:43:04.355Z,103152.86
2019-03-19T21:45:33.838Z,103152.11
2019-03-19T21:48:03.562Z,103149.47
2019-03-19T21:50:33.421Z,103155.23
2019-03-19T21:53:03.182Z,103160.00
2019-03-19T21:55:32.664Z,103160.02
2019-03-19T21:58:02.095Z,103164.45
2019-03-19T22:00:31.528Z,103176.51
2019-03-19T22:03:00.933Z,103172.88
2019-03-19T22:05:30.410Z,103168.43
2019-03-19T22:07:59.853Z,103175.73
2019-03-19T22:10:29.997Z,103172.59
2019-03-19T22:12:59.446Z,103176.83
2019-03-19T22:15:29.103Z,103176.20
2019-03-19T22:17:58.533Z,103160.27
2019-03-19T22:20:27.948Z,103159.31
2019-03-19T22:22:57.389Z,103161.67
2019-03-19T22:25:26.826Z,103158.27
2019-03-19T22:27:56.338Z,103155.98
2019-03-19T22:30:25.777Z,103160.48
2019-03-19T22:32:55.462Z,103163.62
2019-03-19T22:35:24.881Z,103167.50
2019-03-19T22:37:54.310Z,103168.28
2019-03-19T22:40:23.724Z,103165.91
2019-03-19T22:42:53.169Z,103172.70
2019-03-19T22:45:22.657Z,103165.23
2019-03-19T22:47:52.096Z,103166.78
2019-03-19T22:50:21.587Z,103167.77
2019-03-19T22:52:51.008Z,103170.09
2019-03-19T22:55:28.647Z,103172.82
2019-03-19T22:57:51.659Z,103174.44
2019-03-19T23:00:37.629Z,103176.02
2019-03-19T23:03:07.941Z,103173.70
2019-03-19T23:05:37.804Z,103180.55
2019-03-19T23:08:07.372Z,103179.94
2019-03-19T23:10:36.941Z,103182.39
2019-03-19T23:13:07.026Z,103185.45
2019-03-19T23:15:36.565Z,103193.12
2019-03-19T23:18:06.244Z,103193.98
2019-03-19T23:20:35.813Z,103200.25
2019-03-19T23:23:05.677Z,103199.53
2019-03-19T23:25:35.187Z,103196.83
2019-03-19T23:28:04.931Z,103198.84
2019-03-19T23:30:34.499Z,103199.63
2019-03-19T23:33:03.923Z,103196.00
2019-03-19T23:35:33.328Z,103198.65
2019-03-19T23:38:02.830Z,103201.08
2019-03-19T23:40:32.365Z,103204.81
2019-03-19T23:43:01.803Z,103201.51
2019-03-19T23:45:31.301Z,103202.01
2019-03-19T23:48:00.766Z,103204.05
2019-03-19T23:50:30.225Z,103204.11
2019-03-19T23:52:59.641Z,103207.20
2019-03-19T23:55:29.073Z,103210.54
2019-03-19T23:57:58.565Z,103206.05
